Time;durP1;ratioP1;P1;durP2;ratioP2;P2;SDS_P1;SDS_P2;PMS_P1;PMS_P2;Temp;Humidity;BMP_temperature;BMP_pressure;BME280_temperature;BME280_humidity;BME280_pressure;Samples;Min_cycle;Max_cycle;Signal;HPM_P1;HPM_P2
2021/09/02 00:00:23;;;;;;;;;;;;;;;19.12;60.06;99816.34;450542;117;921507;-74
2021/09/02 00:01:26;;;;;;;;;;;;;;;19.10;59.87;99815.79;442747;118;921568;-74
2021/09/02 00:02:30;;;;;;;;;;;;;;;19.08;59.80;99821.59;441368;118;921617;-74
2021/09/02 00:03:33;;;;;;;;;;;;;;;19.08;59.70;99821.59;441535;118;921481;-74
2021/09/02 00:04:36;;;;;;;;;;;;;;;19.06;59.46;99817.49;444179;119;922050;-74
2021/09/02 00:05:40;;;;;;;;;;;;;;;19.03;59.34;99823.58;442117;119;921574;-75
2021/09/02 00:06:43;;;;;;;;;;;;;;;18.98;59.41;99818.92;442009;118;921703;-75
2021/09/02 00:07:46;;;;;;;;;;;;;;;18.96;59.51;99817.58;443491;118;921572;-74
2021/09/02 00:08:49;;;;;;;;;;;;;;;18.95;59.66;99819.52;443830;118;921425;-74
2021/09/02 00:09:52;;;;;;;;;;;;;;;18.93;59.73;99805.16;442963;118;921585;-74
2021/09/02 00:10:55;;;;;;;;;;;;;;;18.93;59.79;99812.61;443025;119;921558;-74
2021/09/02 00:12:01;;;;;;;;;;;;;;;18.92;59.99;99811.78;443259;118;922089;-74
2021/09/02 00:13:04;;;;;;;;;;;;;;;18.93;60.05;99810.67;451135;117;921650;-74
2021/09/02 00:14:07;;;;;;;;;;;;;;;18.94;60.04;99814.27;444883;118;921827;-74
2021/09/02 00:15:11;;;;;;;;;;;;;;;18.93;59.99;99813.44;451433;117;922055;-74
2021/09/02 00:16:14;;;;;;;;;;;;;;;18.92;60.01;99814.55;444755;118;921710;-74
2021/09/02 00:17:18;;;;;;;;;;;;;;;18.92;60.03;99808.20;443631;119;921664;-75
2021/09/02 00:18:21;;;;;;;;;;;;;;;18.90;60.03;99804.92;442020;119;921642;-72
2021/09/02 00:19:24;;;;;;;;;;;;;;;18.90;60.03;99810.44;442093;120;921541;-74
2021/09/02 00:20:28;;;;;;;;;;;;;;;18.91;60.05;99809.34;443089;119;921613;-73
2021/09/02 00:21:33;;;;;;;;;;;;;;;18.89;60.03;99811.55;450551;116;921914;-75
2021/09/02 00:22:37;;;;;;;;;;;;;;;18.89;60.04;99811.55;451997;117;921601;-74
2021/09/02 00:23:40;;;;;;;;;;;;;;;18.87;60.05;99813.77;444829;118;922009;-74
2021/09/02 00:24:43;;;;;;;;;;;;;;;18.86;60.15;99817.63;443392;120;921569;-74
2021/09/02 00:25:46;;;;;;;;;;;;;;;18.85;60.29;99816.01;447259;116;921557;-74
2021/09/02 00:26:50;;;;;;;;;;;;;;;18.86;60.52;99812.11;441887;119;921541;-73
2021/09/02 00:27:53;;;;;;;;;;;;;;;18.86;60.62;99809.34;443180;120;921607;-73
2021/09/02 00:28:56;;;;;;;;;;;;;;;18.87;60.81;99800.78;445823;119;921908;-74
2021/09/02 00:29:59;;;;;;;;;;;;;;;18.88;60.98;99791.38;441043;119;921675;-74
2021/09/02 00:31:03;;;;;;;;;;;;;;;18.89;61.13;99797.73;448412;118;921983;-73
2021/09/02 00:32:06;;;;;;;;;;;;;;;18.89;61.20;99794.97;444107;120;921600;-74
2021/09/02 00:33:17;;;;;;;;;;;;;;;18.89;61.27;99797.73;443021;120;921752;-74
2021/09/02 00:34:20;;;;;;;;;;;;;;;18.91;61.33;99795.52;441986;118;921750;-74
2021/09/02 00:35:23;;;;;;;;;;;;;;;18.90;61.38;99804.92;443268;120;921632;-76
2021/09/02 00:36:26;;;;;;;;;;;;;;;18.89;61.49;99801.33;451111;117;921511;-75
2021/09/02 00:37:29;;;;;;;;;;;;;;;18.89;61.52;99806.02;445218;117;921742;-75
2021/09/02 00:38:32;;;;;;;;;;;;;;;18.86;61.55;99804.64;451518;117;921593;-74
2021/09/02 00:39:35;;;;;;;;;;;;;;;18.86;61.73;99806.58;445880;118;921679;-74
2021/09/02 00:40:39;;;;;;;;;;;;;;;18.81;61.78;99807.45;452039;117;921570;-75
2021/09/02 00:41:42;;;;;;;;;;;;;;;18.77;61.82;99808.32;444899;117;921597;-74
2021/09/02 00:42:45;;;;;;;;;;;;;;;18.73;61.84;99802.56;439150;118;921832;-74
2021/09/02 00:43:48;;;;;;;;;;;;;;;18.71;61.91;99800.08;442582;118;921537;-75
2021/09/02 00:44:51;;;;;;;;;;;;;;;18.69;61.98;99801.45;441480;121;921553;-74
2021/09/02 00:45:54;;;;;;;;;;;;;;;18.67;61.99;99799.01;440038;119;921681;-75
2021/09/02 00:46:57;;;;;;;;;;;;;;;18.67;61.91;99800.94;437102;121;921523;-73
2021/09/02 00:48:01;;;;;;;;;;;;;;;18.66;61.83;99797.34;444436;119;921731;-73
2021/09/02 00:49:04;;;;;;;;;;;;;;;18.66;61.65;99791.83;444734;118;921540;-75
2021/09/02 00:50:08;;;;;;;;;;;;;;;18.66;61.58;99797.34;438602;120;921632;-74
2021/09/02 00:51:12;;;;;;;;;;;;;;;18.66;61.49;99791.00;435937;121;921685;-74
2021/09/02 00:52:17;;;;;;;;;;;;;;;18.67;61.51;99787.13;436570;121;921526;-74
2021/09/02 00:53:22;;;;;;;;;;;;;;;18.68;61.47;99780.50;442656;119;921975;-75
2021/09/02 00:54:25;;;;;;;;;;;;;;;18.69;61.55;99782.13;443831;119;921541;-75
2021/09/02 00:55:29;;;;;;;;;;;;;;;18.71;61.51;99780.74;436172;121;921496;-74
2021/09/02 00:56:33;;;;;;;;;;;;;;;18.73;61.43;99784.05;436376;120;921621;-72
2021/09/02 00:57:37;;;;;;;;;;;;;;;18.73;61.28;99789.58;436325;120;921573;-75
2021/09/02 00:58:41;;;;;;;;;;;;;;;18.73;61.26;99786.81;439122;119;921605;-75
2021/09/02 00:59:45;;;;;;;;;;;;;;;18.73;61.16;99786.81;439733;121;921591;-75
2021/09/02 01:00:48;;;;;;;;;;;;;;;18.72;61.18;99776.88;430714;121;921733;-75
2021/09/02 01:01:51;;;;;;;;;;;;;;;18.72;61.20;99785.16;432211;119;921676;-74
2021/09/02 01:02:55;;;;;;;;;;;;;;;18.71;61.29;99786.27;439971;119;921577;-73
2021/09/02 01:04:03;;;;;;;;;;;;;;;18.71;61.37;99777.98;444437;119;922558;-73
2021/09/02 01:05:06;;;;;;;;;;;;;;;18.72;61.42;99773.28;444253;119;921552;-73
2021/09/02 01:06:10;;;;;;;;;;;;;;;18.72;61.30;99774.11;444100;118;921693;-72
2021/09/02 01:07:13;;;;;;;;;;;;;;;18.72;61.28;99767.77;443998;119;921720;-73
2021/09/02 01:08:17;;;;;;;;;;;;;;;18.71;61.31;99772.45;443989;119;921524;-73
2021/09/02 01:09:20;;;;;;;;;;;;;;;18.71;61.37;99771.63;443965;120;921601;-73
2021/09/02 01:10:24;;;;;;;;;;;;;;;18.71;61.37;99777.98;443293;119;921594;-74
2021/09/02 01:11:27;;;;;;;;;;;;;;;18.70;61.48;99769.98;443939;119;921658;-72
2021/09/02 01:12:38;;;;;;;;;;;;;;;18.68;61.45;99781.33;444036;119;921455;-73
2021/09/02 01:13:42;;;;;;;;;;;;;;;18.67;61.52;99785.20;444512;118;921598;-74
2021/09/02 01:14:45;;;;;;;;;;;;;;;18.65;61.51;99781.06;443533;118;921632;-73
2021/09/02 01:15:48;;;;;;;;;;;;;;;18.64;61.60;99783.00;443443;119;921473;-72
2021/09/02 01:16:51;;;;;;;;;;;;;;;18.62;61.75;99774.20;444527;120;921611;-74
2021/09/02 01:17:56;;;;;;;;;;;;;;;18.63;61.80;99778.61;443382;119;921567;-73
2021/09/02 01:19:00;;;;;;;;;;;;;;;18.62;61.82;99781.65;443423;119;921531;-74
2021/09/02 01:20:04;;;;;;;;;;;;;;;18.61;61.89;99777.23;444131;118;921511;-73
2021/09/02 01:21:07;;;;;;;;;;;;;;;18.61;61.93;99777.23;444723;119;921584;-74
2021/09/02 01:22:10;;;;;;;;;;;;;;;18.61;61.90;99772.54;444207;119;922059;-74
2021/09/02 01:23:20;;;;;;;;;;;;;;;18.61;61.87;99767.02;443744;118;921708;-74
2021/09/02 01:24:24;;;;;;;;;;;;;;;18.62;61.87;99774.20;443784;119;921655;-74
2021/09/02 01:25:28;;;;;;;;;;;;;;;18.63;61.89;99773.09;444141;118;921489;-74
2021/09/02 01:26:32;;;;;;;;;;;;;;;18.64;61.81;99771.13;435799;121;921620;-72
2021/09/02 01:27:35;;;;;;;;;;;;;;;18.63;61.78;99773.09;436073;121;921560;-74
2021/09/02 01:28:38;;;;;;;;;;;;;;;18.63;61.74;99773.09;435918;121;921572;-73
2021/09/02 01:29:41;;;;;;;;;;;;;;;18.63;61.69;99764.80;439426;119;921513;-74
2021/09/02 01:30:44;;;;;;;;;;;;;;;18.64;61.71;99762.84;435386;120;921647;-74
2021/09/02 01:31:47;;;;;;;;;;;;;;;18.63;61.65;99769.50;436079;121;921596;-74
2021/09/02 01:32:52;;;;;;;;;;;;;;;18.62;61.63;99768.67;436202;121;921994;-74
2021/09/02 01:33:55;;;;;;;;;;;;;;;18.62;61.56;99765.09;439632;119;921571;-73
2021/09/02 01:34:58;;;;;;;;;;;;;;;18.61;61.59;99766.19;435945;121;921473;-74
2021/09/02 01:36:02;;;;;;;;;;;;;;;18.62;61.48;99770.61;443918;119;921596;-74
2021/09/02 01:37:06;;;;;;;;;;;;;;;18.61;61.28;99764.25;435864;121;921637;-74
2021/09/02 01:38:09;;;;;;;;;;;;;;;18.60;61.09;99770.05;435073;121;921711;-74
2021/09/02 01:39:20;;;;;;;;;;;;;;;18.58;61.08;99772.30;441752;118;921608;-72
2021/09/02 01:40:31;;;;;;;;;;;;;;;18.58;61.09;99767.57;440141;121;921663;-74
2021/09/02 01:41:34;;;;;;;;;;;;;;;18.58;61.16;99767.57;435005;122;921588;-75
2021/09/02 01:42:37;;;;;;;;;;;;;;;18.57;61.21;99768.71;437441;118;921588;-74
2021/09/02 01:43:40;;;;;;;;;;;;;;;18.58;61.34;99762.05;441680;118;921554;-73
2021/09/02 01:44:43;;;;;;;;;;;;;;;18.60;61.40;99768.12;442696;120;921625;-74
2021/09/02 01:45:46;;;;;;;;;;;;;;;18.62;61.48;99757.63;444260;119;921485;-74
2021/09/02 01:46:49;;;;;;;;;;;;;;;18.64;61.54;99768.36;441055;118;921715;-74
2021/09/02 01:47:54;;;;;;;;;;;;;;;18.66;61.54;99757.86;440472;119;921549;-74
2021/09/02 01:48:57;;;;;;;;;;;;;;;18.68;61.55;99761.17;441192;120;921583;-74
2021/09/02 01:50:08;;;;;;;;;;;;;;;18.70;61.57;99761.69;446234;117;921554;-74
2021/09/02 01:51:12;;;;;;;;;;;;;;;18.70;61.57;99765.28;442476;118;922231;-73
2021/09/02 01:52:15;;;;;;;;;;;;;;;18.72;61.36;99773.28;442727;119;921942;-73
2021/09/02 01:53:18;;;;;;;;;;;;;;;18.71;61.28;99769.70;443446;119;921507;-73
2021/09/02 01:54:21;;;;;;;;;;;;;;;18.71;61.26;99769.70;444188;118;921580;-74
2021/09/02 01:55:25;;;;;;;;;;;;;;;18.71;61.19;99771.63;449946;117;922059;-74
2021/09/02 01:56:28;;;;;;;;;;;;;;;18.72;61.10;99770.52;444886;118;921586;-74
2021/09/02 01:57:31;;;;;;;;;;;;;;;18.70;61.10;99765.28;441249;121;921604;-73
2021/09/02 01:58:34;;;;;;;;;;;;;;;18.70;61.05;99765.28;441692;118;921590;-74
2021/09/02 01:59:37;;;;;;;;;;;;;;;18.70;60.99;99779.09;441190;119;921642;-74
2021/09/02 02:00:40;;;;;;;;;;;;;;;18.70;60.90;99772.73;442355;118;921649;-73
2021/09/02 02:01:44;;;;;;;;;;;;;;;18.69;60.86;99780.20;441804;118;921816;-73
2021/09/02 02:02:47;;;;;;;;;;;;;;;18.69;60.84;99769.15;441087;120;921558;-74
2021/09/02 02:03:51;;;;;;;;;;;;;;;18.70;60.80;99778.26;448029;117;921554;-74
2021/09/02 02:04:54;;;;;;;;;;;;;;;18.69;60.85;99774.67;450135;116;921659;-74
2021/09/02 02:05:57;;;;;;;;;;;;;;;18.71;60.76;99777.16;443269;119;921559;-74
2021/09/02 02:07:00;;;;;;;;;;;;;;;18.72;60.70;99778.81;443668;118;921577;-74
2021/09/02 02:08:03;;;;;;;;;;;;;;;18.73;60.62;99770.25;443275;119;921583;-74
2021/09/02 02:09:07;;;;;;;;;;;;;;;18.74;60.48;99771.07;447658;119;921512;-74
2021/09/02 02:10:12;;;;;;;;;;;;;;;18.74;60.45;99776.59;440917;119;921722;-73
2021/09/02 02:11:15;;;;;;;;;;;;;;;18.75;60.26;99772.70;439066;120;921541;-75
2021/09/02 02:12:18;;;;;;;;;;;;;;;18.74;59.98;99771.87;441313;120;921589;-73
2021/09/02 02:13:21;;;;;;;;;;;;;;;18.74;60.02;99771.87;439116;119;921792;-74
2021/09/02 02:14:24;;;;;;;;;;;;;;;18.75;60.24;99768.00;445400;118;921621;-75
2021/09/02 02:15:28;;;;;;;;;;;;;;;18.77;60.17;99770.48;442259;120;921614;-74
2021/09/02 02:16:31;;;;;;;;;;;;;;;18.78;60.08;99768.55;445084;119;921574;-75
2021/09/02 02:17:34;;;;;;;;;;;;;;;18.79;60.11;99761.91;441152;118;922108;-74
2021/09/02 02:18:37;;;;;;;;;;;;;;;18.79;60.06;99759.98;440354;120;921599;-74
2021/09/02 02:19:40;;;;;;;;;;;;;;;18.78;60.13;99760.27;443296;118;921479;-74
2021/09/02 02:20:43;;;;;;;;;;;;;;;18.78;60.17;99760.27;441782;120;921564;-73
2021/09/02 02:21:46;;;;;;;;;;;;;;;18.77;60.24;99758.61;441507;119;921938;-73
2021/09/02 02:22:50;;;;;;;;;;;;;;;18.76;60.20;99749.50;433656;121;921728;-74
2021/09/02 02:23:53;;;;;;;;;;;;;;;18.77;60.16;99750.32;442939;118;921586;-73
2021/09/02 02:24:58;;;;;;;;;;;;;;;18.75;60.13;99745.91;450580;117;921486;-74
2021/09/02 02:26:02;;;;;;;;;;;;;;;18.75;60.06;99745.91;449451;117;921727;-74
2021/09/02 02:27:05;;;;;;;;;;;;;;;18.74;60.09;99746.22;449395;117;921568;-74
2021/09/02 02:28:08;;;;;;;;;;;;;;;18.73;60.18;99734.34;450589;117;921648;-73
2021/09/02 02:29:11;;;;;;;;;;;;;;;18.71;60.27;99738.49;449873;116;921610;-75
2021/09/02 02:30:17;;;;;;;;;;;;;;;18.67;60.34;99732.73;450959;116;921497;-73
2021/09/02 02:31:20;;;;;;;;;;;;;;;18.65;60.42;99736.88;450775;118;921655;-73
2021/09/02 02:32:23;;;;;;;;;;;;;;;18.63;60.64;99737.19;449433;117;921578;-74
2021/09/02 02:33:26;;;;;;;;;;;;;;;18.63;60.81;99725.32;450465;116;921655;-74
2021/09/02 02:34:29;;;;;;;;;;;;;;;18.63;60.97;99731.67;449422;118;921545;-74
2021/09/02 02:35:32;;;;;;;;;;;;;;;18.62;61.01;99729.19;450319;118;921585;-74
2021/09/02 02:36:36;;;;;;;;;;;;;;;18.61;61.02;99727.53;450486;117;921560;-74
2021/09/02 02:37:39;;;;;;;;;;;;;;;18.60;60.98;99734.16;449933;117;921695;-75
2021/09/02 02:38:42;;;;;;;;;;;;;;;18.59;61.02;99738.86;441819;120;921572;-74
2021/09/02 02:39:45;;;;;;;;;;;;;;;18.58;61.04;99739.97;446160;119;921559;-74
2021/09/02 02:40:49;;;;;;;;;;;;;;;18.58;61.08;99734.44;445935;117;921548;-74
2021/09/02 02:41:52;;;;;;;;;;;;;;;18.57;61.20;99741.10;445129;118;921469;-75
2021/09/02 02:42:56;;;;;;;;;;;;;;;18.57;61.42;99735.58;446400;118;921504;-74
2021/09/02 02:43:59;;;;;;;;;;;;;;;18.59;61.52;99736.09;447010;118;921514;-73
2021/09/02 02:45:03;;;;;;;;;;;;;;;18.61;61.54;99738.58;446394;119;921646;-74
2021/09/02 02:46:06;;;;;;;;;;;;;;;18.61;61.53;99731.12;446861;119;921587;-75
2021/09/02 02:47:10;;;;;;;;;;;;;;;18.63;61.53;99736.36;447140;119;921587;-74
2021/09/02 02:48:13;;;;;;;;;;;;;;;18.62;61.51;99724.50;446104;118;921542;-74
2021/09/02 02:49:16;;;;;;;;;;;;;;;18.62;61.57;99730.02;446980;118;921539;-74
2021/09/02 02:50:19;;;;;;;;;;;;;;;18.62;61.59;99729.19;446292;118;921501;-74
2021/09/02 02:51:22;;;;;;;;;;;;;;;18.62;61.67;99727.25;446255;118;921535;-73
2021/09/02 02:52:25;;;;;;;;;;;;;;;18.62;61.68;99723.67;447101;118;921521;-74
2021/09/02 02:53:28;;;;;;;;;;;;;;;18.60;61.70;99725.88;446572;118;921534;-73
2021/09/02 02:54:31;;;;;;;;;;;;;;;18.59;61.58;99725.05;447107;119;921522;-75
2021/09/02 02:55:34;;;;;;;;;;;;;;;18.59;61.67;99738.86;447020;117;921561;-74
2021/09/02 02:56:37;;;;;;;;;;;;;;;18.59;61.71;99733.34;445721;118;921504;-74
2021/09/02 02:57:40;;;;;;;;;;;;;;;18.58;61.72;99736.41;447086;119;921520;-74
2021/09/02 02:58:44;;;;;;;;;;;;;;;18.56;61.84;99736.69;446638;119;921404;-74
2021/09/02 02:59:47;;;;;;;;;;;;;;;18.56;61.94;99744.14;446684;118;922032;-74
2021/09/02 03:00:51;;;;;;;;;;;;;;;18.55;62.05;99746.08;445895;117;921627;-74
2021/09/02 03:01:54;;;;;;;;;;;;;;;18.56;62.20;99735.86;446931;118;921476;-73
2021/09/02 03:02:58;;;;;;;;;;;;;;;18.57;62.25;99741.10;445988;118;921545;-73
2021/09/02 03:04:01;;;;;;;;;;;;;;;18.57;62.13;99734.75;445537;118;921560;-73
2021/09/02 03:05:04;;;;;;;;;;;;;;;18.57;62.13;99730.06;445659;118;922089;-74
2021/09/02 03:06:09;;;;;;;;;;;;;;;18.58;62.16;99733.64;446908;118;921535;-73
2021/09/02 03:07:12;;;;;;;;;;;;;;;18.59;62.17;99738.03;446970;119;921662;-73
2021/09/02 03:08:15;;;;;;;;;;;;;;;18.60;62.00;99731.41;446188;118;921602;-73
2021/09/02 03:09:19;;;;;;;;;;;;;;;18.60;62.05;99725.88;446391;117;921590;-75
2021/09/02 03:10:22;;;;;;;;;;;;;;;18.61;62.12;99724.77;445011;118;921628;-74
2021/09/02 03:11:25;;;;;;;;;;;;;;;18.60;62.17;99714.84;446403;118;922043;-74
2021/09/02 03:12:28;;;;;;;;;;;;;;;18.59;62.21;99714.01;445233;118;921549;-74
2021/09/02 03:13:31;;;;;;;;;;;;;;;18.59;62.32;99719.53;445269;118;921628;-74
2021/09/02 03:14:34;;;;;;;;;;;;;;;18.56;62.50;99725.64;446297;118;921712;-74
2021/09/02 03:15:37;;;;;;;;;;;;;;;18.55;62.68;99726.75;446681;117;921551;-74
2021/09/02 03:16:41;;;;;;;;;;;;;;;18.54;62.77;99730.62;445451;118;921819;-74
2021/09/02 03:17:44;;;;;;;;;;;;;;;18.55;62.67;99736.97;446645;118;921642;-74
2021/09/02 03:18:47;;;;;;;;;;;;;;;18.53;62.57;99728.93;446926;118;921648;-74
2021/09/02 03:19:50;;;;;;;;;;;;;;;18.51;62.59;99731.17;446471;117;921459;-74
2021/09/02 03:20:54;;;;;;;;;;;;;;;18.50;62.79;99729.52;446422;119;921684;-75
2021/09/02 03:21:57;;;;;;;;;;;;;;;18.51;63.03;99727.59;446669;118;921512;-74
2021/09/02 03:23:00;;;;;;;;;;;;;;;18.49;63.28;99716.83;446584;118;921572;-74
2021/09/02 03:24:03;;;;;;;;;;;;;;;18.49;63.53;99714.06;446240;118;921665;-74
2021/09/02 03:25:06;;;;;;;;;;;;;;;18.49;63.55;99713.23;445186;117;922135;-72
2021/09/02 03:26:10;;;;;;;;;;;;;;;18.49;63.59;99714.06;439858;119;921493;-73
2021/09/02 03:27:13;;;;;;;;;;;;;;;18.51;63.65;99717.38;446259;118;921629;-74
2021/09/02 03:28:16;;;;;;;;;;;;;;;18.52;63.72;99713.50;446208;117;921602;-73
2021/09/02 03:29:19;;;;;;;;;;;;;;;18.54;63.67;99716.81;446666;118;921615;-74
2021/09/02 03:30:22;;;;;;;;;;;;;;;18.57;63.67;99709.91;447174;118;921541;-74
2021/09/02 03:31:26;;;;;;;;;;;;;;;18.58;63.62;99717.08;446163;117;921629;-73
2021/09/02 03:32:29;;;;;;;;;;;;;;;18.58;63.57;99717.08;445873;118;921578;-73
2021/09/02 03:33:33;;;;;;;;;;;;;;;18.55;63.61;99717.64;446787;118;921670;-73
2021/09/02 03:34:36;;;;;;;;;;;;;;;18.53;63.65;99711.54;447479;119;921553;-73
2021/09/02 03:35:39;;;;;;;;;;;;;;;18.51;63.77;99720.13;445351;117;921554;-74
2021/09/02 03:36:45;;;;;;;;;;;;;;;18.52;63.69;99710.74;446079;119;922012;-73
2021/09/02 03:37:47;;;;;;;;;;;;;;;18.50;63.67;99715.72;446083;118;921540;-73
2021/09/02 03:38:50;;;;;;;;;;;;;;;18.51;63.74;99720.13;446233;118;921520;-73
2021/09/02 03:39:53;;;;;;;;;;;;;;;18.51;63.80;99717.38;446509;118;921629;-75
2021/09/02 03:40:56;;;;;;;;;;;;;;;18.52;63.74;99720.95;446986;118;921630;-73
2021/09/02 03:41:59;;;;;;;;;;;;;;;18.52;63.79;99719.02;437839;121;921484;-75
2021/09/02 03:43:02;;;;;;;;;;;;;;;18.53;63.85;99714.30;446645;117;921636;-75
2021/09/02 03:44:05;;;;;;;;;;;;;;;18.55;63.82;99721.23;445157;118;921677;-74
2021/09/02 03:45:08;;;;;;;;;;;;;;;18.56;63.78;99716.53;446386;118;921621;-73
2021/09/02 03:46:12;;;;;;;;;;;;;;;18.59;63.64;99716.77;447086;118;921474;-74
2021/09/02 03:47:15;;;;;;;;;;;;;;;18.59;63.59;99714.01;445941;118;921536;-74
2021/09/02 03:48:18;;;;;;;;;;;;;;;18.62;63.55;99715.38;445820;118;921593;-72
2021/09/02 03:49:21;;;;;;;;;;;;;;;18.63;63.69;99717.03;446797;118;921570;-74
2021/09/02 03:50:24;;;;;;;;;;;;;;;18.64;63.72;99718.66;446229;117;921620;-74
2021/09/02 03:51:27;;;;;;;;;;;;;;;18.65;63.61;99721.14;445148;118;921523;-73
2021/09/02 03:52:30;;;;;;;;;;;;;;;18.66;63.57;99721.97;446681;119;921570;-74
2021/09/02 03:53:33;;;;;;;;;;;;;;;18.67;63.60;99716.16;446749;119;921613;-73
2021/09/02 03:54:36;;;;;;;;;;;;;;;18.69;63.58;99721.38;445734;118;921673;-74
2021/09/02 03:55:40;;;;;;;;;;;;;;;18.69;63.58;99719.44;445968;117;921620;-73
2021/09/02 03:56:43;;;;;;;;;;;;;;;18.69;63.52;99715.85;444181;118;921597;-73
2021/09/02 03:57:46;;;;;;;;;;;;;;;18.67;63.47;99710.64;446160;118;921551;-73
2021/09/02 03:58:51;;;;;;;;;;;;;;;18.67;63.41;99713.41;444909;118;921597;-73
2021/09/02 03:59:54;;;;;;;;;;;;;;;18.67;63.48;99704.30;446034;118;921539;-74
2021/09/02 04:00:57;;;;;;;;;;;;;;;18.67;63.55;99705.12;446272;117;921532;-75
2021/09/02 04:02:00;;;;;;;;;;;;;;;18.66;63.55;99703.47;446523;118;921592;-74
2021/09/02 04:03:03;;;;;;;;;;;;;;;18.65;63.57;99707.34;446211;118;921431;-73
2021/09/02 04:04:07;;;;;;;;;;;;;;;18.64;63.63;99708.44;445369;118;921773;-72
2021/09/02 04:05:10;;;;;;;;;;;;;;;18.64;63.70;99700.16;446739;118;921608;-73
2021/09/02 04:06:15;;;;;;;;;;;;;;;18.64;63.75;99696.57;446009;118;921665;-71
2021/09/02 04:07:18;;;;;;;;;;;;;;;18.65;63.85;99696.29;445735;118;921737;-72
2021/09/02 04:08:23;;;;;;;;;;;;;;;18.65;63.92;99689.94;446118;118;921611;-71
2021/09/02 04:09:26;;;;;;;;;;;;;;;18.63;63.80;99692.19;446737;118;921532;-71
2021/09/02 04:10:31;;;;;;;;;;;;;;;18.63;63.78;99687.49;446338;118;921599;-75
2021/09/02 04:11:34;;;;;;;;;;;;;;;18.62;63.92;99685.01;434061;119;921709;-72
2021/09/02 04:12:37;;;;;;;;;;;;;;;18.60;63.96;99682.53;434946;119;921586;-72
2021/09/02 04:13:40;;;;;;;;;;;;;;;18.58;63.96;99673.70;445549;118;921831;-72
2021/09/02 04:14:44;;;;;;;;;;;;;;;18.57;64.02;99676.77;445306;116;921828;-72
2021/09/02 04:15:50;;;;;;;;;;;;;;;18.54;64.04;99680.06;445735;118;921760;-76
2021/09/02 04:16:56;;;;;;;;;;;;;;;18.51;64.13;99675.96;445871;118;921421;-76
2021/09/02 04:17:59;;;;;;;;;;;;;;;18.50;64.25;99679.00;446622;119;921622;-74
2021/09/02 04:19:04;;;;;;;;;;;;;;;18.49;64.39;99674.59;446007;118;921521;-73
2021/09/02 04:20:07;;;;;;;;;;;;;;;18.51;64.47;99667.68;445593;118;921530;-74
2021/09/02 04:21:10;;;;;;;;;;;;;;;18.51;64.53;99667.68;445713;119;921636;-73
2021/09/02 04:22:13;;;;;;;;;;;;;;;18.53;64.56;99670.12;446709;119;921512;-72
2021/09/02 04:23:16;;;;;;;;;;;;;;;18.52;64.64;99658.30;446109;117;921681;-72
2021/09/02 04:24:20;;;;;;;;;;;;;;;18.54;64.55;99660.73;446025;119;921588;-74
2021/09/02 04:25:23;;;;;;;;;;;;;;;18.57;64.41;99660.21;447147;118;921485;-73
2021/09/02 04:26:26;;;;;;;;;;;;;;;18.58;64.37;99662.66;446745;118;921487;-72
2021/09/02 04:27:30;;;;;;;;;;;;;;;18.59;64.32;99658.79;445880;118;921499;-72
2021/09/02 04:28:33;;;;;;;;;;;;;;;18.61;64.33;99658.51;445210;118;921682;-74
2021/09/02 04:29:37;;;;;;;;;;;;;;;18.63;64.31;99653.53;446608;118;921630;-72
2021/09/02 04:30:40;;;;;;;;;;;;;;;18.64;64.30;99657.91;446870;118;922044;-73
2021/09/02 04:31:43;;;;;;;;;;;;;;;18.65;64.28;99656.80;446912;118;921669;-77
2021/09/02 04:32:47;;;;;;;;;;;;;;;18.65;64.33;99652.11;446314;118;921519;-74
2021/09/02 04:33:51;;;;;;;;;;;;;;;18.66;64.28;99659.28;446766;119;921546;-77
2021/09/02 04:34:54;;;;;;;;;;;;;;;18.69;64.13;99653.17;446693;118;921506;-74
2021/09/02 04:35:59;;;;;;;;;;;;;;;18.70;63.94;99651.23;444388;118;921730;-73
2021/09/02 04:37:03;;;;;;;;;;;;;;;18.71;63.85;99647.36;446343;118;921586;-74
2021/09/02 04:38:06;;;;;;;;;;;;;;;18.72;63.58;99649.02;446845;118;921669;-74
2021/09/02 04:39:10;;;;;;;;;;;;;;;18.72;63.42;99654.54;444398;116;922043;-73
2021/09/02 04:40:16;;;;;;;;;;;;;;;18.74;63.25;99649.56;444439;119;921607;-74
2021/09/02 04:41:19;;;;;;;;;;;;;;;18.74;62.98;99644.83;446593;119;921753;-74
2021/09/02 04:42:23;;;;;;;;;;;;;;;18.74;62.84;99647.59;445733;118;921613;-72
2021/09/02 04:43:28;;;;;;;;;;;;;;;18.76;62.85;99647.31;443968;118;921677;-74
2021/09/02 04:44:31;;;;;;;;;;;;;;;18.77;62.85;99645.38;446141;117;921666;-74
2021/09/02 04:45:34;;;;;;;;;;;;;;;18.78;62.87;99641.50;446802;117;921618;-76
2021/09/02 04:46:37;;;;;;;;;;;;;;;18.77;62.91;99646.20;452173;117;921484;-77
2021/09/02 04:47:41;;;;;;;;;;;;;;;18.75;63.07;99645.66;450909;116;921590;-74
2021/09/02 04:48:45;;;;;;;;;;;;;;;18.75;63.27;99637.38;452210;117;921534;-77
2021/09/02 04:49:48;;;;;;;;;;;;;;;18.76;63.34;99641.78;452262;117;921499;-74
2021/09/02 04:50:51;;;;;;;;;;;;;;;18.77;63.42;99637.09;446383;119;921559;-76
2021/09/02 04:51:54;;;;;;;;;;;;;;;18.79;63.36;99643.16;446015;118;921594;-76
2021/09/02 04:52:57;;;;;;;;;;;;;;;18.79;63.46;99635.70;445089;119;921518;-76
2021/09/02 04:54:00;;;;;;;;;;;;;;;18.81;63.49;99640.91;452779;117;921440;-75
2021/09/02 04:55:04;;;;;;;;;;;;;;;18.81;63.57;99640.91;444230;118;921605;-76
2021/09/02 04:56:09;;;;;;;;;;;;;;;18.82;63.57;99625.98;442961;118;921558;-76
2021/09/02 04:57:12;;;;;;;;;;;;;;;18.83;63.46;99631.23;443071;120;921693;-76
2021/09/02 04:58:16;;;;;;;;;;;;;;;18.85;63.45;99625.42;444570;120;921560;-76
2021/09/02 04:59:20;;;;;;;;;;;;;;;18.86;63.53;99627.05;453707;117;921539;-75
2021/09/02 05:00:23;;;;;;;;;;;;;;;18.87;63.73;99624.00;443903;118;921646;-76
2021/09/02 05:01:26;;;;;;;;;;;;;;;18.89;63.83;99619.02;443787;120;921604;-76
2021/09/02 05:02:30;;;;;;;;;;;;;;;18.90;63.83;99617.08;438680;121;921753;-73
2021/09/02 05:03:33;;;;;;;;;;;;;;;18.90;63.74;99612.37;429072;122;921605;-74
2021/09/02 05:04:36;;;;;;;;;;;;;;;18.90;63.54;99609.62;445256;118;921636;-75
2021/09/02 05:05:39;;;;;;;;;;;;;;;18.91;63.42;99619.52;452584;117;921632;-77
2021/09/02 05:06:42;;;;;;;;;;;;;;;18.92;63.21;99603.78;452753;117;921625;-74
2021/09/02 05:07:46;;;;;;;;;;;;;;;18.93;63.06;99605.43;452162;117;921513;-73
2021/09/02 05:08:49;;;;;;;;;;;;;;;18.93;62.95;99611.78;452784;117;921610;-75
2021/09/02 05:09:52;;;;;;;;;;;;;;;18.93;62.81;99611.78;452681;118;921666;-74
2021/09/02 05:10:55;;;;;;;;;;;;;;;18.94;62.76;99604.31;452009;117;921681;-73
2021/09/02 05:11:58;;;;;;;;;;;;;;;18.96;62.64;99604.86;452877;118;921671;-75
2021/09/02 05:13:02;;;;;;;;;;;;;;;18.96;62.74;99597.40;452997;118;921422;-75
2021/09/02 05:14:05;;;;;;;;;;;;;;;18.98;62.79;99599.84;452545;118;921483;-78
2021/09/02 05:15:08;;;;;;;;;;;;;;;18.99;62.85;99591.27;452532;117;921627;-76
2021/09/02 05:16:12;;;;;;;;;;;;;;;19.04;62.84;99593.14;451946;117;921619;-76
2021/09/02 05:17:15;;;;;;;;;;;;;;;19.06;62.88;99590.92;452755;118;921624;-75
2021/09/02 05:18:18;;;;;;;;;;;;;;;19.08;62.83;99594.20;452401;117;921631;-75
2021/09/02 05:19:23;;;;;;;;;;;;;;;19.10;62.82;99590.03;452555;117;921632;-75
2021/09/02 05:20:27;;;;;;;;;;;;;;;19.13;62.87;99577.58;451465;117;921646;-77
2021/09/02 05:21:30;;;;;;;;;;;;;;;19.17;62.95;99584.16;452845;118;921532;-76
2021/09/02 05:22:33;;;;;;;;;;;;;;;19.19;63.06;99570.84;452472;117;921630;-75
2021/09/02 05:23:36;;;;;;;;;;;;;;;19.22;63.17;99570.27;451229;116;921629;-73
2021/09/02 05:24:39;;;;;;;;;;;;;;;19.25;63.21;99564.14;452348;117;922257;-75
2021/09/02 05:25:42;;;;;;;;;;;;;;;19.28;63.09;99560.80;452948;118;921512;-76